Time;durP1;ratioP1;P1;durP2;ratioP2;P2;SDS_P1;SDS_P2;PMS_P1;PMS_P2;Temp;Humidity;BMP_temperature;BMP_pressure;BME280_temperature;BME280_humidity;BME280_pressure;Samples;Min_cycle;Max_cycle;Signal;HPM_P1;HPM_P2
2022/10/30 00:00:14;;;;;;;;;;;24.20;44.90;;;;;;492319;242;1420;-72
2022/10/30 00:02:16;;;;;;;;;;;24.20;44.90;;;;;;492214;242;1235;-72
2022/10/30 00:04:17;;;;;;;;;;;24.20;44.90;;;;;;492268;242;2192;-72
2022/10/30 00:06:18;;;;;;;;;;;24.10;44.90;;;;;;492221;242;1337;-72
2022/10/30 00:08:20;;;;;;;;;;;24.10;45.00;;;;;;492331;242;1200;-72
2022/10/30 00:10:21;;;;;;;;;;;24.10;45.00;;;;;;492233;242;1348;-72
2022/10/30 00:12:22;;;;;;;;;;;24.10;45.10;;;;;;492100;242;1510;-72
2022/10/30 00:14:24;;;;;;;;;;;24.10;45.00;;;;;;492220;242;1206;-72
2022/10/30 00:16:25;;;;;;;;;;;24.00;45.00;;;;;;492074;242;1603;-72
2022/10/30 00:18:26;;;;;;;;;;;24.00;45.10;;;;;;492216;242;1306;-72
2022/10/30 00:20:28;;;;;;;;;;;24.00;45.00;;;;;;492312;242;1211;-72
2022/10/30 00:22:29;;;;;;;;;;;24.10;44.90;;;;;;492111;242;1260;-72
2022/10/30 00:24:30;;;;;;;;;;;24.10;44.70;;;;;;492183;242;2188;-72
2022/10/30 00:26:32;;;;;;;;;;;24.10;44.70;;;;;;492027;242;1540;-72
2022/10/30 00:28:33;;;;;;;;;;;24.10;44.70;;;;;;492244;242;1205;-72
2022/10/30 00:30:34;;;;;;;;;;;24.20;44.60;;;;;;492281;242;1370;-72
2022/10/30 00:32:35;;;;;;;;;;;24.20;44.50;;;;;;492188;242;1900;-72
2022/10/30 00:34:37;;;;;;;;;;;24.20;44.40;;;;;;492242;242;1269;-72
2022/10/30 00:36:38;;;;;;;;;;;24.20;44.50;;;;;;492190;242;1307;-72
2022/10/30 00:38:39;;;;;;;;;;;24.20;44.40;;;;;;492298;242;1163;-72
2022/10/30 00:40:41;;;;;;;;;;;24.20;44.40;;;;;;492295;242;1154;-72
2022/10/30 00:42:42;;;;;;;;;;;24.20;44.40;;;;;;492316;242;1295;-72
2022/10/30 00:44:43;;;;;;;;;;;24.20;44.40;;;;;;492289;242;2164;-72
2022/10/30 00:46:45;;;;;;;;;;;24.10;44.40;;;;;;492346;242;1333;-72
2022/10/30 00:48:46;;;;;;;;;;;24.10;44.30;;;;;;492278;242;1301;-72
2022/10/30 00:50:47;;;;;;;;;;;24.20;44.20;;;;;;492253;242;1167;-72
2022/10/30 00:52:49;;;;;;;;;;;24.20;44.10;;;;;;492191;242;1212;-72
2022/10/30 00:54:50;;;;;;;;;;;24.20;44.10;;;;;;492397;242;1283;-72
2022/10/30 00:56:51;;;;;;;;;;;24.20;44.00;;;;;;492115;242;1829;-72
2022/10/30 00:58:53;;;;;;;;;;;24.30;44.00;;;;;;492395;242;1238;-72
2022/10/30 01:00:54;;;;;;;;;;;24.20;44.00;;;;;;492205;242;1638;-72
2022/10/30 01:02:55;;;;;;;;;;;24.20;44.10;;;;;;492205;242;1295;-72
2022/10/30 01:04:57;;;;;;;;;;;24.20;44.00;;;;;;492333;242;2187;-72
2022/10/30 01:06:58;;;;;;;;;;;24.20;44.00;;;;;;492116;242;1484;-72
2022/10/30 01:08:59;;;;;;;;;;;24.30;44.00;;;;;;492307;242;1233;-72
2022/10/30 01:11:01;;;;;;;;;;;24.10;44.00;;;;;;492176;242;1648;-72
2022/10/30 01:13:02;;;;;;;;;;;24.10;44.00;;;;;;492279;242;1274;-72
2022/10/30 01:15:03;;;;;;;;;;;24.20;44.00;;;;;;492327;242;1663;-72
2022/10/30 01:17:05;;;;;;;;;;;24.20;43.90;;;;;;492078;242;1635;-72
2022/10/30 01:19:06;;;;;;;;;;;24.20;43.90;;;;;;492308;242;1596;-72
2022/10/30 01:21:07;;;;;;;;;;;24.20;43.90;;;;;;492081;242;1413;-72
2022/10/30 01:23:08;;;;;;;;;;;24.20;43.80;;;;;;492231;242;1292;-72
2022/10/30 01:25:10;;;;;;;;;;;24.20;43.70;;;;;;492257;242;2188;-72
2022/10/30 01:27:11;;;;;;;;;;;24.20;43.60;;;;;;492077;242;1642;-72
2022/10/30 01:29:12;;;;;;;;;;;24.30;43.50;;;;;;492334;242;1215;-72
2022/10/30 01:31:14;;;;;;;;;;;24.30;43.50;;;;;;492042;242;1465;-72
2022/10/30 01:33:15;;;;;;;;;;;24.20;43.50;;;;;;492259;242;1239;-72
2022/10/30 01:35:16;;;;;;;;;;;24.30;43.50;;;;;;492207;242;1250;-72
2022/10/30 01:37:18;;;;;;;;;;;24.30;43.30;;;;;;492076;242;1561;-72
2022/10/30 01:39:19;;;;;;;;;;;24.20;43.40;;;;;;492265;242;1364;-73
2022/10/30 01:41:20;;;;;;;;;;;24.20;43.40;;;;;;492074;242;2305;-72
2022/10/30 01:43:22;;;;;;;;;;;24.20;43.40;;;;;;492205;242;1542;-72
2022/10/30 01:45:23;;;;;;;;;;;24.20;43.40;;;;;;492296;242;2183;-72
2022/10/30 01:47:24;;;;;;;;;;;24.20;43.40;;;;;;492058;242;1678;-72
2022/10/30 01:49:26;;;;;;;;;;;24.30;43.30;;;;;;492224;242;1250;-72
2022/10/30 01:51:27;;;;;;;;;;;24.20;43.30;;;;;;492270;242;1369;-72
2022/10/30 01:53:28;;;;;;;;;;;24.20;43.20;;;;;;492208;242;1217;-72
2022/10/30 01:55:30;;;;;;;;;;;24.20;43.20;;;;;;492331;242;1342;-72
2022/10/30 01:57:31;;;;;;;;;;;24.20;43.30;;;;;;492269;242;1669;-72
2022/10/30 01:59:32;;;;;;;;;;;24.20;43.20;;;;;;492269;242;1395;-72
2022/10/30 02:01:35;;;;;;;;;;;24.20;43.20;;;;;;492252;242;1414;-72
2022/10/30 02:03:35;;;;;;;;;;;24.20;43.10;;;;;;492213;242;2400;-72
2022/10/30 02:05:37;;;;;;;;;;;24.20;43.10;;;;;;492256;242;2192;-72
2022/10/30 02:07:38;;;;;;;;;;;24.20;43.10;;;;;;492257;242;1226;-72
2022/10/30 02:09:39;;;;;;;;;;;24.20;43.10;;;;;;492320;242;1320;-72
2022/10/30 02:11:41;;;;;;;;;;;24.20;43.20;;;;;;492101;242;1691;-72
2022/10/30 02:13:42;;;;;;;;;;;24.20;43.20;;;;;;492240;242;1144;-74
2022/10/30 02:15:43;;;;;;;;;;;24.10;43.10;;;;;;492197;242;1599;-74
2022/10/30 02:17:45;;;;;;;;;;;24.10;43.10;;;;;;492094;242;1519;-74
2022/10/30 02:19:46;;;;;;;;;;;24.20;43.10;;;;;;492234;242;1223;-74
2022/10/30 02:21:47;;;;;;;;;;;24.20;43.00;;;;;;492045;242;1540;-74
2022/10/30 02:23:49;;;;;;;;;;;24.20;42.90;;;;;;492231;242;1189;-74
2022/10/30 02:25:50;;;;;;;;;;;24.20;42.80;;;;;;492135;242;2192;-74
2022/10/30 02:27:51;;;;;;;;;;;24.20;42.80;;;;;;492151;242;1654;-75
2022/10/30 02:29:53;;;;;;;;;;;24.20;42.80;;;;;;492278;242;1342;-74
2022/10/30 02:31:54;;;;;;;;;;;24.20;42.90;;;;;;492093;242;2077;-74
2022/10/30 02:33:55;;;;;;;;;;;24.20;42.80;;;;;;492248;242;1211;-72
2022/10/30 02:35:57;;;;;;;;;;;24.20;42.70;;;;;;492046;242;1700;-72
2022/10/30 02:37:58;;;;;;;;;;;24.20;42.70;;;;;;492162;242;1356;-72
2022/10/30 02:39:59;;;;;;;;;;;24.20;42.70;;;;;;492287;242;1295;-72
2022/10/30 02:42:01;;;;;;;;;;;24.20;42.70;;;;;;492050;242;1525;-72
2022/10/30 02:44:02;;;;;;;;;;;24.10;42.70;;;;;;492285;242;1182;-72
2022/10/30 02:46:04;;;;;;;;;;;24.00;43.00;;;;;;492111;242;2180;-72
2022/10/30 02:48:05;;;;;;;;;;;23.90;43.10;;;;;;492204;242;2413;-72
2022/10/30 02:50:06;;;;;;;;;;;23.90;43.10;;;;;;492298;242;1301;-72
2022/10/30 02:52:07;;;;;;;;;;;23.90;43.10;;;;;;492263;242;1240;-72
2022/10/30 02:54:08;;;;;;;;;;;23.90;43.00;;;;;;492255;242;1279;-71
2022/10/30 02:56:10;;;;;;;;;;;23.90;43.00;;;;;;492245;242;1202;-72
2022/10/30 02:58:11;;;;;;;;;;;23.90;43.00;;;;;;492269;242;1268;-72
2022/10/30 03:00:12;;;;;;;;;;;24.00;42.80;;;;;;492193;242;1200;-72
2022/10/30 03:02:14;;;;;;;;;;;24.00;42.80;;;;;;492313;242;1285;-72
2022/10/30 03:04:15;;;;;;;;;;;24.10;42.70;;;;;;492254;242;1211;-72
2022/10/30 03:06:16;;;;;;;;;;;24.20;42.40;;;;;;492166;242;2175;-72
2022/10/30 03:08:18;;;;;;;;;;;24.30;42.30;;;;;;492252;242;1324;-72
2022/10/30 03:10:19;;;;;;;;;;;24.30;42.20;;;;;;492213;242;1303;-72
2022/10/30 03:12:20;;;;;;;;;;;24.30;42.00;;;;;;492224;242;1420;-72
2022/10/30 03:14:22;;;;;;;;;;;24.30;42.00;;;;;;492255;242;1528;-72
2022/10/30 03:16:23;;;;;;;;;;;24.30;42.00;;;;;;492334;242;1721;-72
2022/10/30 03:18:24;;;;;;;;;;;24.40;42.00;;;;;;492256;242;1226;-72
2022/10/30 03:20:26;;;;;;;;;;;24.30;42.00;;;;;;492220;242;1385;-72
2022/10/30 03:22:28;;;;;;;;;;;24.30;42.00;;;;;;492245;242;1548;-72
2022/10/30 03:24:28;;;;;;;;;;;24.20;42.00;;;;;;492239;242;2004;-72
2022/10/30 03:26:30;;;;;;;;;;;24.30;42.10;;;;;;492239;242;2168;-72
2022/10/30 03:28:31;;;;;;;;;;;24.20;42.20;;;;;;492240;242;1337;-72
2022/10/30 03:30:32;;;;;;;;;;;24.30;42.10;;;;;;492230;242;1284;-72
2022/10/30 03:32:34;;;;;;;;;;;24.20;42.00;;;;;;492214;242;1330;-72
2022/10/30 03:34:35;;;;;;;;;;;24.30;42.00;;;;;;492241;242;1390;-72
2022/10/30 03:36:36;;;;;;;;;;;24.20;41.90;;;;;;492201;242;1246;-72
2022/10/30 03:38:38;;;;;;;;;;;24.20;41.80;;;;;;492182;242;1373;-72
2022/10/30 03:40:39;;;;;;;;;;;24.20;41.80;;;;;;492247;242;1194;-72
2022/10/30 03:42:40;;;;;;;;;;;24.20;41.90;;;;;;492272;242;1301;-72
2022/10/30 03:44:42;;;;;;;;;;;24.20;41.80;;;;;;492306;242;1384;-72
2022/10/30 03:46:43;;;;;;;;;;;24.20;41.80;;;;;;492298;242;2148;-72
2022/10/30 03:48:44;;;;;;;;;;;24.20;41.70;;;;;;492226;242;1201;-72
2022/10/30 03:50:46;;;;;;;;;;;24.20;41.60;;;;;;492236;242;1335;-72
2022/10/30 03:52:47;;;;;;;;;;;24.20;41.60;;;;;;492212;242;1218;-72
2022/10/30 03:54:48;;;;;;;;;;;24.10;41.60;;;;;;492270;242;1399;-72
2022/10/30 03:56:50;;;;;;;;;;;24.10;41.70;;;;;;492248;242;1192;-72
2022/10/30 03:58:51;;;;;;;;;;;24.20;41.70;;;;;;492288;242;1198;-72
2022/10/30 04:00:52;;;;;;;;;;;24.20;41.60;;;;;;492267;242;1540;-72
2022/10/30 04:02:53;;;;;;;;;;;24.20;41.50;;;;;;492231;242;1376;-72
2022/10/30 04:04:55;;;;;;;;;;;24.20;41.50;;;;;;492188;242;1177;-72
2022/10/30 04:06:56;;;;;;;;;;;24.20;41.50;;;;;;492248;242;2199;-72
2022/10/30 04:08:58;;;;;;;;;;;24.30;41.50;;;;;;492249;242;1198;-72
2022/10/30 04:10:59;;;;;;;;;;;24.20;41.50;;;;;;492323;242;1185;-72
2022/10/30 04:13:00;;;;;;;;;;;24.20;41.60;;;;;;492244;242;1181;-72
2022/10/30 04:15:02;;;;;;;;;;;24.10;41.60;;;;;;492275;242;1171;-72
2022/10/30 04:17:04;;;;;;;;;;;24.10;41.50;;;;;;492095;242;1386;-72
2022/10/30 04:19:05;;;;;;;;;;;24.10;41.60;;;;;;492255;242;2284;-72
2022/10/30 04:21:06;;;;;;;;;;;24.10;41.50;;;;;;492077;242;1309;-72
2022/10/30 04:23:07;;;;;;;;;;;24.10;41.60;;;;;;492280;242;1320;-72
2022/10/30 04:25:09;;;;;;;;;;;24.00;41.60;;;;;;492290;242;2176;-72
2022/10/30 04:27:12;;;;;;;;;;;24.10;41.70;;;;;;492119;242;1349;-72
2022/10/30 04:29:11;;;;;;;;;;;24.10;41.60;;;;;;492272;242;2145;-72
2022/10/30 04:31:13;;;;;;;;;;;24.00;41.60;;;;;;492247;242;1612;-72
2022/10/30 04:33:14;;;;;;;;;;;24.10;41.60;;;;;;492225;242;1299;-72
2022/10/30 04:35:15;;;;;;;;;;;24.10;41.40;;;;;;492234;242;1304;-72
2022/10/30 04:37:17;;;;;;;;;;;24.10;41.30;;;;;;492260;242;1228;-72
2022/10/30 04:39:18;;;;;;;;;;;24.10;41.40;;;;;;492297;242;1210;-72
2022/10/30 04:41:19;;;;;;;;;;;24.10;41.20;;;;;;492202;242;1352;-72
2022/10/30 04:43:21;;;;;;;;;;;24.00;41.60;;;;;;492226;242;1165;-72
2022/10/30 04:45:22;;;;;;;;;;;23.90;41.60;;;;;;492260;242;2140;-72
2022/10/30 04:47:23;;;;;;;;;;;23.90;41.70;;;;;;492199;242;1174;-72
2022/10/30 04:49:25;;;;;;;;;;;24.00;41.50;;;;;;492200;242;1340;-72
2022/10/30 04:51:26;;;;;;;;;;;24.00;41.40;;;;;;492264;242;1450;-72
2022/10/30 04:53:27;;;;;;;;;;;24.00;41.40;;;;;;492198;242;1365;-72
2022/10/30 04:55:29;;;;;;;;;;;23.90;41.30;;;;;;492289;242;1171;-72
2022/10/30 04:57:30;;;;;;;;;;;24.00;41.40;;;;;;492274;242;1276;-72
2022/10/30 04:59:32;;;;;;;;;;;24.00;41.30;;;;;;492310;242;1159;-72
2022/10/30 05:01:33;;;;;;;;;;;24.00;41.10;;;;;;492323;242;1191;-72
2022/10/30 05:03:34;;;;;;;;;;;24.10;41.10;;;;;;492319;242;1192;-72
2022/10/30 05:05:36;;;;;;;;;;;24.20;40.90;;;;;;492324;242;2191;-72
2022/10/30 05:07:37;;;;;;;;;;;24.20;40.80;;;;;;492302;242;1373;-72
2022/10/30 05:09:38;;;;;;;;;;;24.20;40.70;;;;;;492318;242;1437;-72
2022/10/30 05:11:40;;;;;;;;;;;24.20;40.70;;;;;;492310;242;1201;-72
2022/10/30 05:13:41;;;;;;;;;;;24.30;40.60;;;;;;492258;242;1164;-72
2022/10/30 05:15:42;;;;;;;;;;;24.20;40.50;;;;;;492291;242;1184;-73
2022/10/30 05:17:44;;;;;;;;;;;24.20;40.60;;;;;;492308;242;1361;-72
2022/10/30 05:19:45;;;;;;;;;;;24.20;40.50;;;;;;492458;242;1199;-72
2022/10/30 05:21:46;;;;;;;;;;;24.20;40.60;;;;;;492204;242;1180;-72
2022/10/30 05:23:48;;;;;;;;;;;24.20;40.60;;;;;;492221;242;1228;-72
2022/10/30 05:25:49;;;;;;;;;;;24.20;40.50;;;;;;492324;242;2175;-72
2022/10/30 05:27:50;;;;;;;;;;;24.20;40.50;;;;;;492248;242;1184;-72
2022/10/30 05:29:52;;;;;;;;;;;24.20;40.50;;;;;;492272;242;1210;-72
2022/10/30 05:31:53;;;;;;;;;;;24.20;40.50;;;;;;492273;242;1268;-72
2022/10/30 05:33:54;;;;;;;;;;;24.20;40.50;;;;;;492221;242;1248;-72
2022/10/30 05:35:55;;;;;;;;;;;24.10;40.50;;;;;;492331;242;1199;-72
2022/10/30 05:37:57;;;;;;;;;;;24.20;40.40;;;;;;492192;242;1319;-72
2022/10/30 05:39:58;;;;;;;;;;;24.20;40.40;;;;;;492229;242;1178;-72
2022/10/30 05:41:59;;;;;;;;;;;24.20;40.30;;;;;;492365;242;1183;-72
2022/10/30 05:44:01;;;;;;;;;;;24.30;40.30;;;;;;492238;242;1232;-72
2022/10/30 05:46:02;;;;;;;;;;;24.20;40.30;;;;;;492284;242;2183;-72
2022/10/30 05:48:03;;;;;;;;;;;24.30;40.30;;;;;;492261;242;1206;-72
2022/10/30 05:50:05;;;;;;;;;;;24.30;40.10;;;;;;492280;242;1334;-72
2022/10/30 05:52:06;;;;;;;;;;;24.20;40.20;;;;;;492268;242;1323;-72
2022/10/30 05:54:07;;;;;;;;;;;24.20;40.10;;;;;;492205;242;1208;-72
2022/10/30 05:56:09;;;;;;;;;;;24.20;40.10;;;;;;492258;242;1288;-72
2022/10/30 05:58:10;;;;;;;;;;;24.20;40.10;;;;;;492249;242;1303;-72
2022/10/30 06:00:11;;;;;;;;;;;24.10;40.10;;;;;;492275;242;1205;-72
2022/10/30 06:02:13;;;;;;;;;;;24.20;40.10;;;;;;492261;242;1215;-72
2022/10/30 06:04:14;;;;;;;;;;;24.10;40.00;;;;;;492287;242;1512;-72
2022/10/30 06:06:15;;;;;;;;;;;24.10;40.00;;;;;;492178;242;2191;-72
2022/10/30 06:08:17;;;;;;;;;;;24.20;40.00;;;;;;492157;242;1504;-72
2022/10/30 06:10:18;;;;;;;;;;;24.10;39.80;;;;;;492218;242;1318;-72
2022/10/30 06:12:19;;;;;;;;;;;24.00;40.10;;;;;;492008;242;1579;-72
2022/10/30 06:14:21;;;;;;;;;;;23.90;40.30;;;;;;492224;242;1205;-72
2022/10/30 06:16:22;;;;;;;;;;;23.90;40.30;;;;;;492046;242;1712;-72
2022/10/30 06:18:23;;;;;;;;;;;23.90;40.30;;;;;;492245;242;1303;-72
2022/10/30 06:20:25;;;;;;;;;;;23.90;40.30;;;;;;492259;242;1334;-72
2022/10/30 06:22:26;;;;;;;;;;;24.00;40.40;;;;;;492071;242;1628;-72
2022/10/30 06:24:27;;;;;;;;;;;24.00;40.60;;;;;;492225;242;1168;-72
2022/10/30 06:26:28;;;;;;;;;;;24.10;40.40;;;;;;491975;242;2183;-72
2022/10/30 06:28:30;;;;;;;;;;;24.10;40.30;;;;;;492240;242;1292;-72
2022/10/30 06:30:32;;;;;;;;;;;24.20;40.40;;;;;;492262;242;1310;-72
2022/10/30 06:32:32;;;;;;;;;;;24.10;40.30;;;;;;492287;242;1271;-72
2022/10/30 06:34:34;;;;;;;;;;;24.10;40.30;;;;;;492242;242;1313;-72
2022/10/30 06:36:35;;;;;;;;;;;24.10;40.40;;;;;;492347;242;1283;-72
2022/10/30 06:38:36;;;;;;;;;;;24.20;40.30;;;;;;492324;242;1252;-73
2022/10/30 06:40:38;;;;;;;;;;;24.20;40.30;;;;;;492328;242;1172;-72
2022/10/30 06:42:39;;;;;;;;;;;24.20;40.30;;;;;;492391;242;1621;-72
2022/10/30 06:44:40;;;;;;;;;;;24.20;40.30;;;;;;492242;242;2243;-72
2022/10/30 06:46:42;;;;;;;;;;;24.20;40.30;;;;;;492266;242;2145;-72
2022/10/30 06:48:43;;;;;;;;;;;24.00;40.60;;;;;;492334;242;1336;-72
2022/10/30 06:50:44;;;;;;;;;;;23.80;41.00;;;;;;492310;242;1226;-72
2022/10/30 06:52:47;;;;;;;;;;;23.60;41.40;;;;;;492199;242;1280;-72
2022/10/30 06:54:47;;;;;;;;;;;23.60;41.60;;;;;;492268;242;2355;-72
2022/10/30 06:56:48;;;;;;;;;;;23.40;41.80;;;;;;492273;242;1175;-72
2022/10/30 06:58:50;;;;;;;;;;;23.40;41.80;;;;;;492255;242;1200;-72
2022/10/30 07:00:51;;;;;;;;;;;23.50;42.00;;;;;;492287;242;1193;-72
2022/10/30 07:02:52;;;;;;;;;;;23.40;42.20;;;;;;492280;242;1257;-72
2022/10/30 07:04:54;;;;;;;;;;;23.40;42.30;;;;;;492233;242;1252;-72
2022/10/30 07:06:55;;;;;;;;;;;23.30;42.40;;;;;;492241;242;2188;-72
2022/10/30 07:08:56;;;;;;;;;;;23.30;42.60;;;;;;492245;242;1196;-72
2022/10/30 07:10:58;;;;;;;;;;;23.30;42.70;;;;;;492267;242;1153;-72
2022/10/30 07:12:59;;;;;;;;;;;23.20;42.80;;;;;;492244;242;1268;-72
2022/10/30 07:15:00;;;;;;;;;;;23.30;42.90;;;;;;492302;242;1150;-72
2022/10/30 07:17:02;;;;;;;;;;;23.20;43.00;;;;;;492206;242;1153;-72
2022/10/30 07:19:03;;;;;;;;;;;23.10;43.10;;;;;;492332;242;1310;-72
2022/10/30 07:21:04;;;;;;;;;;;23.10;43.30;;;;;;492265;242;1290;-72
2022/10/30 07:23:06;;;;;;;;;;;23.20;43.30;;;;;;492141;242;1178;-72
2022/10/30 07:25:07;;;;;;;;;;;23.10;43.40;;;;;;492219;242;1234;-72
2022/10/30 07:27:08;;;;;;;;;;;23.10;43.50;;;;;;492242;242;2187;-72
2022/10/30 07:29:09;;;;;;;;;;;23.10;43.50;;;;;;492267;242;1291;-72
2022/10/30 07:31:11;;;;;;;;;;;23.00;43.80;;;;;;492236;242;1244;-72
2022/10/30 07:33:12;;;;;;;;;;;22.90;44.10;;;;;;492248;242;1188;-72
2022/10/30 07:35:14;;;;;;;;;;;22.90;44.30;;;;;;492321;242;1516;-72
2022/10/30 07:37:15;;;;;;;;;;;22.90;44.40;;;;;;492206;242;1356;-72
2022/10/30 07:39:16;;;;;;;;;;;22.80;44.60;;;;;;492214;242;1239;-72
2022/10/30 07:41:17;;;;;;;;;;;22.80;44.60;;;;;;492265;242;1335;-72
2022/10/30 07:43:19;;;;;;;;;;;22.80;44.60;;;;;;492260;242;1159;-72
2022/10/30 07:45:20;;;;;;;;;;;22.80;44.60;;;;;;492300;242;1451;-71
2022/10/30 07:47:21;;;;;;;;;;;22.90;44.70;;;;;;492338;242;2187;-72
2022/10/30 07:49:23;;;;;;;;;;;22.90;44.60;;;;;;492323;242;1094;-72
2022/10/30 07:51:24;;;;;;;;;;;23.00;44.50;;;;;;492109;242;1466;-72
2022/10/30 07:53:26;;;;;;;;;;;23.10;44.50;;;;;;492290;242;1189;-72
2022/10/30 07:55:27;;;;;;;;;;;23.00;44.60;;;;;;492359;242;1219;-72
2022/10/30 07:57:28;;;;;;;;;;;23.00;44.60;;;;;;492075;242;1565;-72
2022/10/30 07:59:30;;;;;;;;;;;23.10;44.60;;;;;;492272;242;1203;-72
2022/10/30 08:01:31;;;;;;;;;;;23.00;44.80;;;;;;492073;242;1613;-72
2022/10/30 08:03:32;;;;;;;;;;;23.10;44.90;;;;;;492230;242;1181;-72
2022/10/30 08:05:34;;;;;;;;;;;23.10;45.00;;;;;;492289;242;1271;-72
2022/10/30 08:07:35;;;;;;;;;;;23.00;45.10;;;;;;492014;242;2148;-72
2022/10/30 08:09:36;;;;;;;;;;;23.00;45.30;;;;;;492296;242;1203;-72
2022/10/30 08:11:38;;;;;;;;;;;23.00;45.40;;;;;;492037;242;1601;-71
2022/10/30 08:13:39;;;;;;;;;;;22.90;45.60;;;;;;492286;242;1225;-71
2022/10/30 08:15:40;;;;;;;;;;;23.00;45.70;;;;;;492129;242;1493;-72
2022/10/30 08:17:42;;;;;;;;;;;23.00;45.70;;;;;;492117;242;1328;-72
2022/10/30 08:19:43;;;;;;;;;;;22.90;45.70;;;;;;492266;242;1339;-72
2022/10/30 08:21:44;;;;;;;;;;;23.00;45.80;;;;;;492042;242;1485;-72
2022/10/30 08:23:46;;;;;;;;;;;22.90;45.80;;;;;;492244;242;1265;-72
2022/10/30 08:25:47;;;;;;;;;;;22.90;46.00;;;;;;492066;242;1691;-72
2022/10/30 08:27:48;;;;;;;;;;;23.00;45.80;;;;;;492126;242;2145;-72
2022/10/30 08:29:50;;;;;;;;;;;23.10;45.50;;;;;;492194;242;1278;-72
2022/10/30 08:31:51;;;;;;;;;;;23.30;45.20;;;;;;492165;242;1407;-72
2022/10/30 08:33:52;;;;;;;;;;;23.40;45.00;;;;;;492244;242;1181;-73
2022/10/30 08:35:55;;;;;;;;;;;23.50;44.90;;;;;;492097;242;1500;-72
2022/10/30 08:37:55;;;;;;;;;;;23.60;44.70;;;;;;492099;242;2205;-72
2022/10/30 08:39:56;;;;;;;;;;;23.70;44.40;;;;;;492184;242;1376;-72
2022/10/30 08:41:58;;;;;;;;;;;23.90;44.00;;;;;;491984;242;1496;-72
2022/10/30 08:44:00;;;;;;;;;;;24.00;43.70;;;;;;492258;242;1294;-72
2022/10/30 08:46:01;;;;;;;;;;;24.00;43.80;;;;;;492120;242;1553;-72
2022/10/30 08:48:02;;;;;;;;;;;24.00;43.80;;;;;;492135;242;2228;-72
2022/10/30 08:50:04;;;;;;;;;;;24.10;43.80;;;;;;492283;242;1323;-72
2022/10/30 08:52:05;;;;;;;;;;;24.10;43.80;;;;;;491953;242;1615;-72
2022/10/30 08:54:06;;;;;;;;;;;24.20;43.80;;;;;;492193;242;1559;-72
2022/10/30 08:56:08;;;;;;;;;;;24.20;43.80;;;;;;492102;242;1689;-71
2022/10/30 08:58:09;;;;;;;;;;;24.20;43.80;;;;;;492150;242;1207;-71
2022/10/30 09:00:10;;;;;;;;;;;24.20;43.90;;;;;;492254;242;1207;-71
2022/10/30 09:02:12;;;;;;;;;;;24.10;44.00;;;;;;492104;242;1521;-72
2022/10/30 09:04:13;;;;;;;;;;;24.20;44.00;;;;;;492194;242;1268;-72
2022/10/30 09:06:14;;;;;;;;;;;24.20;43.90;;;;;;492070;242;1310;-72
2022/10/30 09:08:16;;;;;;;;;;;24.10;44.00;;;;;;492223;242;2196;-72
2022/10/30 09:10:17;;;;;;;;;;;24.20;43.90;;;;;;492255;242;1225;-72
2022/10/30 09:12:18;;;;;;;;;;;24.10;44.00;;;;;;492291;242;1193;-72
2022/10/30 09:14:19;;;;;;;;;;;24.10;44.00;;;;;;492267;242;1356;-72
2022/10/30 09:16:21;;;;;;;;;;;24.10;44.00;;;;;;492263;242;1239;-72
2022/10/30 09:18:22;;;;;;;;;;;24.10;44.00;;;;;;492276;242;1379;-72
2022/10/30 09:20:24;;;;;;;;;;;23.90;44.10;;;;;;492236;242;1217;-72
2022/10/30 09:22:25;;;;;;;;;;;24.00;44.10;;;;;;492211;242;1263;-72
2022/10/30 09:24:26;;;;;;;;;;;24.00;44.00;;;;;;492201;242;1209;-72
2022/10/30 09:26:27;;;;;;;;;;;24.10;43.90;;;;;;492206;242;1310;-72
2022/10/30 09:28:29;;;;;;;;;;;24.10;43.80;;;;;;492187;242;2192;-72
2022/10/30 09:30:30;;;;;;;;;;;24.10;43.80;;;;;;492266;242;1199;-72
2022/10/30 09:32:31;;;;;;;;;;;24.10;43.80;;;;;;492167;242;1224;-73
2022/10/30 09:34:33;;;;;;;;;;;24.10;43.80;;;;;;492252;242;1309;-72
2022/10/30 09:36:34;;;;;;;;;;;24.10;44.00;;;;;;492201;242;1341;-72
2022/10/30 09:38:35;;;;;;;;;;;24.10;43.90;;;;;;492217;242;1258;-72
2022/10/30 09:40:37;;;;;;;;;;;24.20;43.80;;;;;;492199;242;1348;-72
2022/10/30 09:42:38;;;;;;;;;;;24.00;44.10;;;;;;492252;242;1291;-72
2022/10/30 09:44:39;;;;;;;;;;;24.00;44.40;;;;;;492272;242;1157;-72
2022/10/30 09:46:41;;;;;;;;;;;23.90;44.40;;;;;;492265;242;1253;-72
2022/10/30 09:48:42;;;;;;;;;;;24.00;44.50;;;;;;492344;242;2097;-72
2022/10/30 09:50:43;;;;;;;;;;;24.00;44.50;;;;;;492291;242;1160;-72
2022/10/30 09:52:45;;;;;;;;;;;24.00;44.50;;;;;;492256;242;1211;-72
2022/10/30 09:54:46;;;;;;;;;;;24.00;44.50;;;;;;492283;242;1199;-72
2022/10/30 09:56:47;;;;;;;;;;;24.10;44.20;;;;;;492237;242;1204;-72
2022/10/30 09:58:49;;;;;;;;;;;24.20;44.00;;;;;;492258;242;1228;-72
2022/10/30 10:00:50;;;;;;;;;;;24.30;44.00;;;;;;492277;242;1299;-72
2022/10/30 10:02:51;;;;;;;;;;;24.30;43.90;;;;;;492259;242;1222;-72
2022/10/30 10:04:53;;;;;;;;;;;24.30;43.90;;;;;;492329;242;1222;-72
2022/10/30 10:06:54;;;;;;;;;;;24.40;44.00;;;;;;492263;242;1276;-72
2022/10/30 10:08:56;;;;;;;;;;;24.40;44.20;;;;;;492207;242;2203;-72
2022/10/30 10:10:57;;;;;;;;;;;24.30;44.20;;;;;;492175;242;2521;-72
2022/10/30 10:12:58;;;;;;;;;;;24.40;44.40;;;;;;492239;242;1182;-72
2022/10/30 10:14:59;;;;;;;;;;;24.40;44.30;;;;;;492240;242;1262;-72
2022/10/30 10:17:01;;;;;;;;;;;24.40;44.60;;;;;;492192;242;1604;-72
2022/10/30 10:19:02;;;;;;;;;;;24.30;44.70;;;;;;492188;242;1291;-72
2022/10/30 10:21:03;;;;;;;;;;;24.40;44.70;;;;;;492192;242;1351;-72
2022/10/30 10:23:04;;;;;;;;;;;24.40;44.70;;;;;;492197;242;1533;-72
2022/10/30 10:25:06;;;;;;;;;;;24.40;44.80;;;;;;492301;242;1231;-72
2022/10/30 10:27:07;;;;;;;;;;;24.40;44.80;;;;;;492216;242;1574;-72
2022/10/30 10:29:08;;;;;;;;;;;24.40;44.90;;;;;;492350;242;2155;-72
2022/10/30 10:31:10;;;;;;;;;;;24.40;44.90;;;;;;492224;242;1376;-72
2022/10/30 10:33:11;;;;;;;;;;;24.30;45.00;;;;;;492213;242;1233;-72
2022/10/30 10:35:12;;;;;;;;;;;24.20;45.10;;;;;;492297;242;1400;-72
2022/10/30 10:37:14;;;;;;;;;;;24.10;45.30;;;;;;492211;242;1627;-72
2022/10/30 10:39:15;;;;;;;;;;;24.10;45.40;;;;;;492288;242;2258;-72
2022/10/30 10:41:18;;;;;;;;;;;24.00;45.50;;;;;;492227;242;1214;-72
2022/10/30 10:43:19;;;;;;;;;;;24.00;45.60;;;;;;492242;242;1206;-72
2022/10/30 10:45:20;;;;;;;;;;;24.00;45.50;;;;;;492276;242;1299;-72
2022/10/30 10:47:22;;;;;;;;;;;24.00;45.50;;;;;;492164;242;1321;-72
2022/10/30 10:49:23;;;;;;;;;;;24.00;45.50;;;;;;492362;242;2199;-72
2022/10/30 10:51:24;;;;;;;;;;;24.00;45.50;;;;;;492061;242;1646;-72
2022/10/30 10:53:26;;;;;;;;;;;23.90;45.40;;;;;;492202;242;1243;-72
2022/10/30 10:55:27;;;;;;;;;;;23.80;45.60;;;;;;492338;242;1327;-72
2022/10/30 10:57:28;;;;;;;;;;;23.90;45.70;;;;;;492052;242;1581;-72
2022/10/30 10:59:29;;;;;;;;;;;23.70;45.90;;;;;;492245;242;1342;-72
2022/10/30 11:01:31;;;;;;;;;;;23.60;46.30;;;;;;492020;242;1657;-72
2022/10/30 11:03:32;;;;;;;;;;;23.50;46.60;;;;;;492240;242;1158;-72
2022/10/30 11:05:35;;;;;;;;;;;23.50;46.80;;;;;;492279;242;1286;-73
2022/10/30 11:07:35;;;;;;;;;;;23.50;47.00;;;;;;492048;242;2187;-72
2022/10/30 11:09:37;;;;;;;;;;;23.40;47.10;;;;;;492244;242;1434;-72
2022/10/30 11:11:38;;;;;;;;;;;23.50;47.10;;;;;;492007;242;1183;-72
2022/10/30 11:13:39;;;;;;;;;;;23.40;47.30;;;;;;492224;242;1229;-72
2022/10/30 11:15:40;;;;;;;;;;;23.40;47.30;;;;;;492212;242;1341;-72
2022/10/30 11:17:42;;;;;;;;;;;23.40;47.40;;;;;;492122;242;1545;-72
2022/10/30 11:19:43;;;;;;;;;;;23.50;47.40;;;;;;492229;242;1373;-72
2022/10/30 11:21:44;;;;;;;;;;;23.50;47.20;;;;;;492055;242;1606;-72
2022/10/30 11:23:46;;;;;;;;;;;23.60;47.20;;;;;;492281;242;1317;-72
2022/10/30 11:25:47;;;;;;;;;;;23.60;47.10;;;;;;492112;242;1594;-72
2022/10/30 11:27:48;;;;;;;;;;;23.70;47.30;;;;;;492136;242;2183;-72
2022/10/30 11:29:50;;;;;;;;;;;23.70;47.20;;;;;;492259;242;1269;-72
2022/10/30 11:31:51;;;;;;;;;;;23.90;46.90;;;;;;492229;242;1185;-74
2022/10/30 11:33:52;;;;;;;;;;;24.00;46.60;;;;;;492201;242;1194;-75
2022/10/30 11:35:54;;;;;;;;;;;24.00;46.50;;;;;;492260;242;1203;-74
2022/10/30 11:37:55;;;;;;;;;;;24.00;46.50;;;;;;492206;242;1502;-74
2022/10/30 11:39:56;;;;;;;;;;;24.10;46.40;;;;;;492260;242;1168;-74
2022/10/30 11:41:58;;;;;;;;;;;24.10;46.30;;;;;;492293;242;1225;-74
2022/10/30 11:43:59;;;;;;;;;;;24.00;46.30;;;;;;492174;242;1218;-74
2022/10/30 11:46:00;;;;;;;;;;;24.10;46.40;;;;;;492286;242;1507;-74
2022/10/30 11:48:02;;;;;;;;;;;24.00;46.70;;;;;;492174;242;2187;-74
2022/10/30 11:50:03;;;;;;;;;;;24.00;46.70;;;;;;492285;242;1329;-74
2022/10/30 11:52:04;;;;;;;;;;;24.00;46.70;;;;;;491995;242;1534;-74
2022/10/30 11:54:06;;;;;;;;;;;24.00;46.70;;;;;;492220;242;1172;-74
2022/10/30 11:56:07;;;;;;;;;;;24.00;46.70;;;;;;492058;242;1202;-75